sensor_id;sensor_type;location;lat;lon;timestamp;P1;durP1;ratioP1;P2;durP2;ratioP2
76157;SDS011;64907;51.574;6.502;2023-04-07T00:00:38;43.33;;;29.90;;
76157;SDS011;64907;51.574;6.502;2023-04-07T00:03:03;45.93;;;30.13;;
76157;SDS011;64907;51.574;6.502;2023-04-07T00:05:30;43.38;;;30.67;;
76157;SDS011;64907;51.574;6.502;2023-04-07T00:07:58;43.33;;;30.63;;
76157;SDS011;64907;51.574;6.502;2023-04-07T00:10:23;40.53;;;29.17;;
76157;SDS011;64907;51.574;6.502;2023-04-07T00:12:49;42.50;;;29.52;;
76157;SDS011;64907;51.574;6.502;2023-04-07T00:15:14;48.77;;;32.27;;
76157;SDS011;64907;51.574;6.502;2023-04-07T00:17:39;51.92;;;32.67;;
76157;SDS011;64907;51.574;6.502;2023-04-07T00:20:05;54.30;;;35.37;;
76157;SDS011;64907;51.574;6.502;2023-04-07T00:22:30;54.35;;;32.85;;
76157;SDS011;64907;51.574;6.502;2023-04-07T00:24:56;52.65;;;33.33;;
76157;SDS011;64907;51.574;6.502;2023-04-07T00:27:21;55.58;;;34.80;;
76157;SDS011;64907;51.574;6.502;2023-04-07T00:29:47;55.67;;;32.28;;
76157;SDS011;64907;51.574;6.502;2023-04-07T00:32:12;61.47;;;35.05;;
76157;SDS011;64907;51.574;6.502;2023-04-07T00:34:37;48.50;;;33.77;;
76157;SDS011;64907;51.574;6.502;2023-04-07T00:37:03;60.47;;;35.40;;
76157;SDS011;64907;51.574;6.502;2023-04-07T00:39:31;61.85;;;35.65;;
76157;SDS011;64907;51.574;6.502;2023-04-07T00:41:56;72.40;;;39.13;;
76157;SDS011;64907;51.574;6.502;2023-04-07T00:44:21;74.65;;;38.80;;
76157;SDS011;64907;51.574;6.502;2023-04-07T00:46:47;92.75;;;39.78;;
76157;SDS011;64907;51.574;6.502;2023-04-07T00:49:12;70.57;;;39.05;;
76157;SDS011;64907;51.574;6.502;2023-04-07T00:51:38;95.93;;;43.50;;
76157;SDS011;64907;51.574;6.502;2023-04-07T00:54:03;86.85;;;42.47;;
76157;SDS011;64907;51.574;6.502;2023-04-07T00:56:28;98.05;;;43.38;;
76157;SDS011;64907;51.574;6.502;2023-04-07T00:58:54;72.13;;;38.65;;
76157;SDS011;64907;51.574;6.502;2023-04-07T01:01:26;85.95;;;44.17;;
76157;SDS011;64907;51.574;6.502;2023-04-07T01:04:02;66.93;;;38.78;;
76157;SDS011;64907;51.574;6.502;2023-04-07T01:06:30;74.85;;;40.47;;
76157;SDS011;64907;51.574;6.502;2023-04-07T01:11:41;90.65;;;44.72;;
76157;SDS011;64907;51.574;6.502;2023-04-07T01:14:08;85.68;;;42.58;;
76157;SDS011;64907;51.574;6.502;2023-04-07T01:16:36;92.70;;;42.45;;
76157;SDS011;64907;51.574;6.502;2023-04-07T01:19:08;77.63;;;39.47;;
76157;SDS011;64907;51.574;6.502;2023-04-07T01:21:37;77.63;;;38.83;;
76157;SDS011;64907;51.574;6.502;2023-04-07T01:24:07;73.82;;;36.85;;
76157;SDS011;64907;51.574;6.502;2023-04-07T01:26:35;79.68;;;39.92;;
76157;SDS011;64907;51.574;6.502;2023-04-07T01:29:24;84.25;;;41.10;;
76157;SDS011;64907;51.574;6.502;2023-04-07T01:31:50;75.55;;;36.72;;
76157;SDS011;64907;51.574;6.502;2023-04-07T01:34:16;72.57;;;36.55;;
76157;SDS011;64907;51.574;6.502;2023-04-07T01:36:42;73.20;;;36.53;;
76157;SDS011;64907;51.574;6.502;2023-04-07T01:39:07;69.85;;;36.83;;
76157;SDS011;64907;51.574;6.502;2023-04-07T01:41:33;73.32;;;35.08;;
76157;SDS011;64907;51.574;6.502;2023-04-07T01:43:59;65.57;;;32.72;;
76157;SDS011;64907;51.574;6.502;2023-04-07T01:46:25;60.67;;;31.65;;
76157;SDS011;64907;51.574;6.502;2023-04-07T01:48:51;52.92;;;30.55;;
76157;SDS011;64907;51.574;6.502;2023-04-07T01:51:16;72.47;;;34.10;;
76157;SDS011;64907;51.574;6.502;2023-04-07T01:53:43;67.60;;;31.98;;
76157;SDS011;64907;51.574;6.502;2023-04-07T01:56:09;69.55;;;34.13;;
76157;SDS011;64907;51.574;6.502;2023-04-07T01:58:34;60.65;;;31.75;;
76157;SDS011;64907;51.574;6.502;2023-04-07T02:00:59;59.90;;;30.90;;
76157;SDS011;64907;51.574;6.502;2023-04-07T02:03:29;64.82;;;30.85;;
76157;SDS011;64907;51.574;6.502;2023-04-07T02:05:56;43.55;;;26.20;;
76157;SDS011;64907;51.574;6.502;2023-04-07T02:08:22;62.55;;;29.05;;
76157;SDS011;64907;51.574;6.502;2023-04-07T02:10:48;49.95;;;27.38;;
76157;SDS011;64907;51.574;6.502;2023-04-07T02:13:15;51.60;;;26.88;;
76157;SDS011;64907;51.574;6.502;2023-04-07T02:15:42;51.80;;;27.35;;
76157;SDS011;64907;51.574;6.502;2023-04-07T02:18:09;56.05;;;29.20;;
76157;SDS011;64907;51.574;6.502;2023-04-07T02:20:36;56.17;;;27.63;;
76157;SDS011;64907;51.574;6.502;2023-04-07T02:23:02;52.00;;;27.63;;
76157;SDS011;64907;51.574;6.502;2023-04-07T02:25:28;49.10;;;26.67;;
76157;SDS011;64907;51.574;6.502;2023-04-07T02:27:54;49.63;;;26.80;;
76157;SDS011;64907;51.574;6.502;2023-04-07T02:30:20;52.55;;;28.38;;
76157;SDS011;64907;51.574;6.502;2023-04-07T02:32:45;55.25;;;28.45;;
76157;SDS011;64907;51.574;6.502;2023-04-07T02:35:11;55.78;;;28.17;;
76157;SDS011;64907;51.574;6.502;2023-04-07T02:37:36;54.05;;;28.35;;
76157;SDS011;64907;51.574;6.502;2023-04-07T02:40:02;65.82;;;31.38;;
76157;SDS011;64907;51.574;6.502;2023-04-07T02:42:27;55.88;;;28.23;;
76157;SDS011;64907;51.574;6.502;2023-04-07T02:44:53;50.17;;;27.07;;
76157;SDS011;64907;51.574;6.502;2023-04-07T02:47:18;46.60;;;25.53;;
76157;SDS011;64907;51.574;6.502;2023-04-07T02:49:43;51.08;;;27.38;;
76157;SDS011;64907;51.574;6.502;2023-04-07T02:52:08;54.47;;;26.73;;
76157;SDS011;64907;51.574;6.502;2023-04-07T02:54:33;49.13;;;26.08;;
76157;SDS011;64907;51.574;6.502;2023-04-07T02:56:58;51.70;;;27.67;;
76157;SDS011;64907;51.574;6.502;2023-04-07T02:59:24;44.42;;;25.80;;
76157;SDS011;64907;51.574;6.502;2023-04-07T03:01:50;43.43;;;25.37;;
76157;SDS011;64907;51.574;6.502;2023-04-07T03:04:15;52.25;;;27.33;;
76157;SDS011;64907;51.574;6.502;2023-04-07T03:06:40;47.42;;;27.35;;
76157;SDS011;64907;51.574;6.502;2023-04-07T03:09:05;47.03;;;27.13;;
76157;SDS011;64907;51.574;6.502;2023-04-07T03:11:31;45.05;;;24.73;;
76157;SDS011;64907;51.574;6.502;2023-04-07T03:13:56;49.33;;;25.65;;
76157;SDS011;64907;51.574;6.502;2023-04-07T03:16:21;46.70;;;25.33;;
76157;SDS011;64907;51.574;6.502;2023-04-07T03:18:46;44.13;;;25.20;;
76157;SDS011;64907;51.574;6.502;2023-04-07T03:21:11;55.58;;;27.48;;
76157;SDS011;64907;51.574;6.502;2023-04-07T03:23:37;59.25;;;27.92;;
76157;SDS011;64907;51.574;6.502;2023-04-07T03:26:02;46.83;;;26.40;;
76157;SDS011;64907;51.574;6.502;2023-04-07T03:28:27;48.63;;;24.75;;
76157;SDS011;64907;51.574;6.502;2023-04-07T03:30:52;45.50;;;24.53;;
76157;SDS011;64907;51.574;6.502;2023-04-07T03:33:18;44.45;;;24.15;;
76157;SDS011;64907;51.574;6.502;2023-04-07T03:35:43;41.88;;;23.40;;
76157;SDS011;64907;51.574;6.502;2023-04-07T03:38:08;44.17;;;25.80;;
76157;SDS011;64907;51.574;6.502;2023-04-07T03:40:33;44.45;;;23.17;;
76157;SDS011;64907;51.574;6.502;2023-04-07T03:42:59;35.08;;;21.65;;
76157;SDS011;64907;51.574;6.502;2023-04-07T03:45:25;43.13;;;23.20;;
76157;SDS011;64907;51.574;6.502;2023-04-07T03:47:50;41.08;;;22.85;;
76157;SDS011;64907;51.574;6.502;2023-04-07T03:50:15;35.80;;;20.92;;
76157;SDS011;64907;51.574;6.502;2023-04-07T03:52:40;39.10;;;20.23;;
76157;SDS011;64907;51.574;6.502;2023-04-07T03:55:06;36.20;;;21.02;;
76157;SDS011;64907;51.574;6.502;2023-04-07T03:57:32;38.22;;;20.35;;
76157;SDS011;64907;51.574;6.502;2023-04-07T03:59:57;38.00;;;21.05;;
76157;SDS011;64907;51.574;6.502;2023-04-07T04:02:22;26.40;;;16.77;;
76157;SDS011;64907;51.574;6.502;2023-04-07T04:04:48;31.95;;;18.52;;
76157;SDS011;64907;51.574;6.502;2023-04-07T04:07:13;26.17;;;15.97;;
76157;SDS011;64907;51.574;6.502;2023-04-07T04:09:38;27.55;;;15.48;;
76157;SDS011;64907;51.574;6.502;2023-04-07T04:12:03;25.58;;;16.52;;
76157;SDS011;64907;51.574;6.502;2023-04-07T04:14:29;27.63;;;17.25;;
76157;SDS011;64907;51.574;6.502;2023-04-07T04:16:54;28.88;;;17.17;;
76157;SDS011;64907;51.574;6.502;2023-04-07T04:19:19;24.00;;;14.88;;
76157;SDS011;64907;51.574;6.502;2023-04-07T04:21:45;23.50;;;14.50;;
76157;SDS011;64907;51.574;6.502;2023-04-07T04:24:10;21.92;;;14.82;;
76157;SDS011;64907;51.574;6.502;2023-04-07T04:26:35;28.75;;;16.67;;
76157;SDS011;64907;51.574;6.502;2023-04-07T04:29:01;20.33;;;14.00;;
76157;SDS011;64907;51.574;6.502;2023-04-07T04:31:27;24.83;;;15.18;;
76157;SDS011;64907;51.574;6.502;2023-04-07T04:33:52;23.40;;;13.87;;
76157;SDS011;64907;51.574;6.502;2023-04-07T04:36:17;23.33;;;15.45;;
76157;SDS011;64907;51.574;6.502;2023-04-07T04:38:42;24.60;;;17.63;;
76157;SDS011;64907;51.574;6.502;2023-04-07T04:41:08;26.42;;;16.58;;
76157;SDS011;64907;51.574;6.502;2023-04-07T04:43:33;24.83;;;15.60;;
76157;SDS011;64907;51.574;6.502;2023-04-07T04:45:58;30.52;;;16.23;;
76157;SDS011;64907;51.574;6.502;2023-04-07T04:48:23;25.45;;;15.52;;
76157;SDS011;64907;51.574;6.502;2023-04-07T04:50:48;24.53;;;15.27;;
76157;SDS011;64907;51.574;6.502;2023-04-07T04:53:13;25.83;;;16.03;;
76157;SDS011;64907;51.574;6.502;2023-04-07T04:55:39;24.80;;;16.27;;
76157;SDS011;64907;51.574;6.502;2023-04-07T04:58:06;25.30;;;16.08;;
76157;SDS011;64907;51.574;6.502;2023-04-07T05:00:32;31.45;;;17.92;;
76157;SDS011;64907;51.574;6.502;2023-04-07T05:02:57;28.10;;;16.35;;
76157;SDS011;64907;51.574;6.502;2023-04-07T05:05:22;26.13;;;15.35;;
76157;SDS011;64907;51.574;6.502;2023-04-07T05:07:47;33.57;;;17.63;;
76157;SDS011;64907;51.574;6.502;2023-04-07T05:10:12;28.23;;;15.40;;
76157;SDS011;64907;51.574;6.502;2023-04-07T05:12:38;27.42;;;15.13;;
76157;SDS011;64907;51.574;6.502;2023-04-07T05:15:03;29.73;;;15.50;;
76157;SDS011;64907;51.574;6.502;2023-04-07T05:17:29;25.20;;;13.73;;
76157;SDS011;64907;51.574;6.502;2023-04-07T05:19:54;32.03;;;16.17;;
76157;SDS011;64907;51.574;6.502;2023-04-07T05:22:19;29.90;;;15.43;;
76157;SDS011;64907;51.574;6.502;2023-04-07T05:24:45;26.10;;;14.55;;
76157;SDS011;64907;51.574;6.502;2023-04-07T05:27:10;23.90;;;14.03;;
76157;SDS011;64907;51.574;6.502;2023-04-07T05:29:35;29.00;;;14.67;;
76157;SDS011;64907;51.574;6.502;2023-04-07T05:32:00;27.23;;;13.73;;
76157;SDS011;64907;51.574;6.502;2023-04-07T05:34:26;28.27;;;13.90;;
76157;SDS011;64907;51.574;6.502;2023-04-07T05:36:51;25.50;;;14.25;;
76157;SDS011;64907;51.574;6.502;2023-04-07T05:39:16;29.40;;;13.90;;
76157;SDS011;64907;51.574;6.502;2023-04-07T05:41:42;25.05;;;12.70;;
76157;SDS011;64907;51.574;6.502;2023-04-07T05:44:07;26.55;;;13.38;;
76157;SDS011;64907;51.574;6.502;2023-04-07T05:46:32;23.63;;;13.33;;
76157;SDS011;64907;51.574;6.502;2023-04-07T05:48:57;27.40;;;13.98;;
76157;SDS011;64907;51.574;6.502;2023-04-07T05:51:22;29.60;;;14.07;;
76157;SDS011;64907;51.574;6.502;2023-04-07T05:53:48;26.25;;;13.07;;
76157;SDS011;64907;51.574;6.502;2023-04-07T05:56:13;24.30;;;14.07;;
76157;SDS011;64907;51.574;6.502;2023-04-07T05:58:38;25.13;;;14.50;;
76157;SDS011;64907;51.574;6.502;2023-04-07T06:01:03;25.15;;;13.98;;
76157;SDS011;64907;51.574;6.502;2023-04-07T06:03:28;23.90;;;14.00;;
76157;SDS011;64907;51.574;6.502;2023-04-07T06:05:54;29.05;;;15.00;;
76157;SDS011;64907;51.574;6.502;2023-04-07T06:08:19;24.10;;;12.77;;
76157;SDS011;64907;51.574;6.502;2023-04-07T06:10:44;22.92;;;14.40;;
76157;SDS011;64907;51.574;6.502;2023-04-07T06:13:10;29.27;;;14.07;;
76157;SDS011;64907;51.574;6.502;2023-04-07T06:15:35;24.92;;;14.20;;
76157;SDS011;64907;51.574;6.502;2023-04-07T06:18:01;27.83;;;13.15;;
76157;SDS011;64907;51.574;6.502;2023-04-07T06:20:26;22.93;;;13.33;;
76157;SDS011;64907;51.574;6.502;2023-04-07T06:22:52;25.42;;;14.20;;
76157;SDS011;64907;51.574;6.502;2023-04-07T06:25:17;26.55;;;14.60;;
76157;SDS011;64907;51.574;6.502;2023-04-07T06:27:42;26.80;;;15.13;;
76157;SDS011;64907;51.574;6.502;2023-04-07T06:30:07;34.35;;;16.63;;
76157;SDS011;64907;51.574;6.502;2023-04-07T06:32:33;25.42;;;14.23;;
76157;SDS011;64907;51.574;6.502;2023-04-07T06:34:58;29.73;;;16.27;;
76157;SDS011;64907;51.574;6.502;2023-04-07T06:37:23;36.33;;;15.00;;
76157;SDS011;64907;51.574;6.502;2023-04-07T06:39:50;31.25;;;16.52;;
76157;SDS011;64907;51.574;6.502;2023-04-07T06:42:15;38.65;;;17.30;;
76157;SDS011;64907;51.574;6.502;2023-04-07T06:44:40;27.87;;;16.60;;
76157;SDS011;64907;51.574;6.502;2023-04-07T06:47:05;26.37;;;16.13;;
76157;SDS011;64907;51.574;6.502;2023-04-07T06:49:30;34.15;;;16.55;;
76157;SDS011;64907;51.574;6.502;2023-04-07T06:51:56;33.50;;;16.43;;
76157;SDS011;64907;51.574;6.502;2023-04-07T06:54:21;30.13;;;16.83;;
76157;SDS011;64907;51.574;6.502;2023-04-07T06:56:46;31.15;;;16.27;;
76157;SDS011;64907;51.574;6.502;2023-04-07T06:59:11;35.50;;;17.27;;
76157;SDS011;64907;51.574;6.502;2023-04-07T07:01:36;28.23;;;16.33;;
76157;SDS011;64907;51.574;6.502;2023-04-07T07:04:01;29.85;;;15.80;;
76157;SDS011;64907;51.574;6.502;2023-04-07T07:06:27;28.20;;;15.23;;
76157;SDS011;64907;51.574;6.502;2023-04-07T07:08:52;27.85;;;16.55;;
76157;SDS011;64907;51.574;6.502;2023-04-07T07:11:17;24.27;;;15.07;;
76157;SDS011;64907;51.574;6.502;2023-04-07T07:13:43;31.13;;;17.50;;
76157;SDS011;64907;51.574;6.502;2023-04-07T07:16:09;30.73;;;16.20;;
76157;SDS011;64907;51.574;6.502;2023-04-07T07:18:36;33.17;;;18.63;;
76157;SDS011;64907;51.574;6.502;2023-04-07T07:21:01;33.53;;;17.95;;
76157;SDS011;64907;51.574;6.502;2023-04-07T07:23:27;48.30;;;20.38;;
76157;SDS011;64907;51.574;6.502;2023-04-07T07:25:52;36.23;;;19.50;;
76157;SDS011;64907;51.574;6.502;2023-04-07T07:28:17;39.40;;;20.13;;
76157;SDS011;64907;51.574;6.502;2023-04-07T07:30:42;36.72;;;18.63;;
76157;SDS011;64907;51.574;6.502;2023-04-07T07:33:07;42.97;;;19.40;;
76157;SDS011;64907;51.574;6.502;2023-04-07T07:35:33;35.15;;;19.25;;
76157;SDS011;64907;51.574;6.502;2023-04-07T07:37:58;34.33;;;18.48;;
76157;SDS011;64907;51.574;6.502;2023-04-07T07:40:23;35.00;;;19.95;;
76157;SDS011;64907;51.574;6.502;2023-04-07T07:42:48;33.05;;;16.73;;
76157;SDS011;64907;51.574;6.502;2023-04-07T07:45:14;34.13;;;18.45;;
76157;SDS011;64907;51.574;6.502;2023-04-07T07:47:40;34.65;;;17.80;;
76157;SDS011;64907;51.574;6.502;2023-04-07T07:50:05;36.08;;;17.70;;
76157;SDS011;64907;51.574;6.502;2023-04-07T07:52:31;32.97;;;16.60;;
76157;SDS011;64907;51.574;6.502;2023-04-07T07:54:56;43.97;;;18.92;;
76157;SDS011;64907;51.574;6.502;2023-04-07T07:57:21;35.67;;;18.58;;
76157;SDS011;64907;51.574;6.502;2023-04-07T07:59:46;33.30;;;16.58;;
76157;SDS011;64907;51.574;6.502;2023-04-07T08:02:12;36.93;;;16.63;;
76157;SDS011;64907;51.574;6.502;2023-04-07T08:04:37;30.33;;;16.30;;
76157;SDS011;64907;51.574;6.502;2023-04-07T08:07:03;33.38;;;17.67;;
76157;SDS011;64907;51.574;6.502;2023-04-07T08:09:28;30.45;;;16.52;;
76157;SDS011;64907;51.574;6.502;2023-04-07T08:11:53;36.20;;;17.42;;
76157;SDS011;64907;51.574;6.502;2023-04-07T08:14:20;28.13;;;15.97;;
76157;SDS011;64907;51.574;6.502;2023-04-07T08:16:45;31.42;;;17.27;;
76157;SDS011;64907;51.574;6.502;2023-04-07T08:19:11;25.10;;;15.93;;
76157;SDS011;64907;51.574;6.502;2023-04-07T08:21:37;36.03;;;18.75;;
76157;SDS011;64907;51.574;6.502;2023-04-07T08:24:02;31.02;;;16.80;;
76157;SDS011;64907;51.574;6.502;2023-04-07T08:26:27;32.05;;;17.27;;
76157;SDS011;64907;51.574;6.502;2023-04-07T08:28:53;33.60;;;17.98;;
76157;SDS011;64907;51.574;6.502;2023-04-07T08:31:19;34.33;;;17.92;;
76157;SDS011;64907;51.574;6.502;2023-04-07T08:33:45;31.97;;;19.27;;
76157;SDS011;64907;51.574;6.502;2023-04-07T08:36:10;28.40;;;17.75;;
76157;SDS011;64907;51.574;6.502;2023-04-07T08:38:36;33.63;;;18.45;;
76157;SDS011;64907;51.574;6.502;2023-04-07T08:41:07;25.92;;;16.10;;
76157;SDS011;64907;51.574;6.502;2023-04-07T08:43:34;35.03;;;17.92;;
76157;SDS011;64907;51.574;6.502;2023-04-07T08:46:00;27.35;;;16.98;;
76157;SDS011;64907;51.574;6.502;2023-04-07T08:48:26;27.83;;;16.38;;
76157;SDS011;64907;51.574;6.502;2023-04-07T08:50:57;27.15;;;16.40;;
76157;SDS011;64907;51.574;6.502;2023-04-07T08:53:25;25.20;;;17.67;;
76157;SDS011;64907;51.574;6.502;2023-04-07T08:55:54;28.10;;;16.52;;
76157;SDS011;64907;51.574;6.502;2023-04-07T08:58:20;27.40;;;16.13;;
76157;SDS011;64907;51.574;6.502;2023-04-07T09:00:45;25.10;;;15.02;;
76157;SDS011;64907;51.574;6.502;2023-04-07T09:03:13;21.92;;;14.93;;
76157;SDS011;64907;51.574;6.502;2023-04-07T09:05:38;24.02;;;14.45;;
76157;SDS011;64907;51.574;6.502;2023-04-07T09:08:03;23.63;;;15.60;;
76157;SDS011;64907;51.574;6.502;2023-04-07T09:10:29;22.17;;;14.95;;
76157;SDS011;64907;51.574;6.502;2023-04-07T09:12:54;27.70;;;15.93;;
76157;SDS011;64907;51.574;6.502;2023-04-07T09:15:21;27.08;;;15.88;;
76157;SDS011;64907;51.574;6.502;2023-04-07T09:17:47;23.27;;;15.40;;
76157;SDS011;64907;51.574;6.502;2023-04-07T09:20:12;26.15;;;16.02;;
76157;SDS011;64907;51.574;6.502;2023-04-07T09:22:39;23.98;;;15.80;;
76157;SDS011;64907;51.574;6.502;2023-04-07T09:25:17;25.42;;;16.27;;
76157;SDS011;64907;51.574;6.502;2023-04-07T09:27:52;23.17;;;14.88;;
76157;SDS011;64907;51.574;6.502;2023-04-07T09:30:18;21.90;;;15.40;;
76157;SDS011;64907;51.574;6.502;2023-04-07T09:32:43;27.02;;;15.48;;
76157;SDS011;64907;51.574;6.502;2023-04-07T09:35:08;23.13;;;14.77;;
76157;SDS011;64907;51.574;6.502;2023-04-07T09:37:33;22.02;;;14.45;;
76157;SDS011;64907;51.574;6.502;2023-04-07T09:39:59;23.65;;;14.52;;
76157;SDS011;64907;51.574;6.502;2023-04-07T09:42:25;22.15;;;14.65;;
76157;SDS011;64907;51.574;6.502;2023-04-07T09:44:54;23.55;;;14.25;;
76157;SDS011;64907;51.574;6.502;2023-04-07T09:47:24;17.95;;;11.73;;
76157;SDS011;64907;51.574;6.502;2023-04-07T09:49:50;20.60;;;12.73;;
76157;SDS011;64907;51.574;6.502;2023-04-07T09:52:21;18.08;;;11.75;;
76157;SDS011;64907;51.574;6.502;2023-04-07T09:54:47;28.38;;;14.32;;
76157;SDS011;64907;51.574;6.502;2023-04-07T09:57:12;21.25;;;13.43;;
76157;SDS011;64907;51.574;6.502;2023-04-07T09:59:39;20.55;;;14.13;;
76157;SDS011;64907;51.574;6.502;2023-04-07T10:02:06;23.08;;;14.40;;
76157;SDS011;64907;51.574;6.502;2023-04-07T10:04:32;20.25;;;14.00;;
76157;SDS011;64907;51.574;6.502;2023-04-07T10:06:57;20.40;;;14.48;;
76157;SDS011;64907;51.574;6.502;2023-04-07T10:09:24;20.92;;;13.90;;
76157;SDS011;64907;51.574;6.502;2023-04-07T10:11:50;20.27;;;13.73;;
76157;SDS011;64907;51.574;6.502;2023-04-07T10:14:17;16.92;;;12.55;;
76157;SDS011;64907;51.574;6.502;2023-04-07T10:16:42;19.92;;;13.13;;
76157;SDS011;64907;51.574;6.502;2023-04-07T10:19:08;15.05;;;11.43;;
76157;SDS011;64907;51.574;6.502;2023-04-07T10:21:34;15.98;;;12.07;;
76157;SDS011;64907;51.574;6.502;2023-04-07T10:24:13;16.08;;;10.75;;
76157;SDS011;64907;51.574;6.502;2023-04-07T10:26:44;19.63;;;12.77;;
76157;SDS011;64907;51.574;6.502;2023-04-07T10:29:11;22.85;;;13.85;;
76157;SDS011;64907;51.574;6.502;2023-04-07T10:31:39;23.85;;;15.35;;
76157;SDS011;64907;51.574;6.502;2023-04-07T10:34:04;22.52;;;13.85;;
76157;SDS011;64907;51.574;6.502;2023-04-07T10:36:30;22.53;;;14.90;;
76157;SDS011;64907;51.574;6.502;2023-04-07T10:41:39;23.05;;;14.55;;
76157;SDS011;64907;51.574;6.502;2023-04-07T10:44:05;26.15;;;15.27;;
76157;SDS011;64907;51.574;6.502;2023-04-07T10:49:16;23.90;;;16.13;;
76157;SDS011;64907;51.574;6.502;2023-04-07T10:51:41;26.92;;;16.67;;
76157;SDS011;64907;51.574;6.502;2023-04-07T10:54:19;27.75;;;17.20;;
76157;SDS011;64907;51.574;6.502;2023-04-07T10:59:27;26.92;;;15.77;;
76157;SDS011;64907;51.574;6.502;2023-04-07T11:04:37;20.45;;;13.60;;
76157;SDS011;64907;51.574;6.502;2023-04-07T11:07:02;22.08;;;14.73;;
76157;SDS011;64907;51.574;6.502;2023-04-07T11:09:27;19.05;;;14.35;;
76157;SDS011;64907;51.574;6.502;2023-04-07T11:11:53;20.67;;;15.07;;
76157;SDS011;64907;51.574;6.502;2023-04-07T11:14:28;22.73;;;15.25;;
76157;SDS011;64907;51.574;6.502;2023-04-07T11:16:53;18.08;;;14.80;;
76157;SDS011;64907;51.574;6.502;2023-04-07T11:19:19;18.98;;;15.50;;
76157;SDS011;64907;51.574;6.502;2023-04-07T11:21:44;23.25;;;15.57;;
76157;SDS011;64907;51.574;6.502;2023-04-07T11:24:09;22.42;;;15.23;;
76157;SDS011;64907;51.574;6.502;2023-04-07T11:26:39;20.85;;;14.93;;
76157;SDS011;64907;51.574;6.502;2023-04-07T11:29:04;20.60;;;15.25;;
76157;SDS011;64907;51.574;6.502;2023-04-07T11:31:30;24.63;;;16.30;;
76157;SDS011;64907;51.574;6.502;2023-04-07T11:34:02;23.42;;;15.00;;
76157;SDS011;64907;51.574;6.502;2023-04-07T11:38:57;21.67;;;15.00;;
76157;SDS011;64907;51.574;6.502;2023-04-07T11:41:23;20.42;;;16.15;;
76157;SDS011;64907;51.574;6.502;2023-04-07T11:43:48;27.23;;;16.85;;
76157;SDS011;64907;51.574;6.502;2023-04-07T11:46:27;23.10;;;16.77;;
76157;SDS011;64907;51.574;6.502;2023-04-07T11:48:52;19.02;;;15.25;;
76157;SDS011;64907;51.574;6.502;2023-04-07T11:51:21;22.13;;;14.10;;
76157;SDS011;64907;51.574;6.502;2023-04-07T11:53:53;22.92;;;15.77;;
76157;SDS011;64907;51.574;6.502;2023-04-07T11:56:18;19.58;;;13.95;;
76157;SDS011;64907;51.574;6.502;2023-04-07T11:58:53;21.07;;;15.37;;
76157;SDS011;64907;51.574;6.502;2023-04-07T12:01:19;21.15;;;14.80;;
76157;SDS011;64907;51.574;6.502;2023-04-07T12:03:57;22.00;;;14.98;;
76157;SDS011;64907;51.574;6.502;2023-04-07T12:08:53;22.73;;;14.38;;
76157;SDS011;64907;51.574;6.502;2023-04-07T12:11:18;21.67;;;15.63;;
76157;SDS011;64907;51.574;6.502;2023-04-07T12:13:43;20.25;;;14.77;;
76157;SDS011;64907;51.574;6.502;2023-04-07T12:16:08;19.43;;;13.23;;
76157;SDS011;64907;51.574;6.502;2023-04-07T12:18:34;17.27;;;13.93;;
76157;SDS011;64907;51.574;6.502;2023-04-07T12:20:59;15.85;;;12.73;;
76157;SDS011;64907;51.574;6.502;2023-04-07T12:23:25;17.90;;;13.60;;
76157;SDS011;64907;51.574;6.502;2023-04-07T12:25:50;16.38;;;12.25;;
76157;SDS011;64907;51.574;6.502;2023-04-07T12:28:16;22.42;;;15.48;;
76157;SDS011;64907;51.574;6.502;2023-04-07T12:30:41;20.17;;;13.03;;
76157;SDS011;64907;51.574;6.502;2023-04-07T12:33:07;20.45;;;13.75;;
76157;SDS011;64907;51.574;6.502;2023-04-07T12:35:32;17.23;;;12.63;;
76157;SDS011;64907;51.574;6.502;2023-04-07T12:37:57;15.30;;;11.52;;
76157;SDS011;64907;51.574;6.502;2023-04-07T12:40:23;13.35;;;10.48;;
76157;SDS011;64907;51.574;6.502;2023-04-07T12:42:48;13.15;;;9.43;;
76157;SDS011;64907;51.574;6.502;2023-04-07T12:45:13;18.10;;;10.03;;
76157;SDS011;64907;51.574;6.502;2023-04-07T12:47:38;19.73;;;9.67;;
76157;SDS011;64907;51.574;6.502;2023-04-07T12:50:04;16.03;;;10.40;;
76157;SDS011;64907;51.574;6.502;2023-04-07T12:52:29;16.17;;;10.40;;
76157;SDS011;64907;51.574;6.502;2023-04-07T12:54:54;17.77;;;11.27;;
76157;SDS011;64907;51.574;6.502;2023-04-07T12:57:21;14.85;;;9.57;;
76157;SDS011;64907;51.574;6.502;2023-04-07T12:59:46;13.93;;;9.55;;
76157;SDS011;64907;51.574;6.502;2023-04-07T13:02:12;15.60;;;9.77;;
76157;SDS011;64907;51.574;6.502;2023-04-07T13:04:37;18.85;;;10.88;;
76157;SDS011;64907;51.574;6.502;2023-04-07T13:07:07;26.13;;;12.60;;
76157;SDS011;64907;51.574;6.502;2023-04-07T13:09:33;27.05;;;16.30;;
76157;SDS011;64907;51.574;6.502;2023-04-07T13:11:58;29.83;;;16.43;;
76157;SDS011;64907;51.574;6.502;2023-04-07T13:14:23;31.37;;;18.70;;
76157;SDS011;64907;51.574;6.502;2023-04-07T13:16:49;33.22;;;19.10;;
76157;SDS011;64907;51.574;6.502;2023-04-07T13:19:14;28.35;;;17.55;;
76157;SDS011;64907;51.574;6.502;2023-04-07T13:21:39;32.72;;;19.48;;
76157;SDS011;64907;51.574;6.502;2023-04-07T13:24:05;32.42;;;18.70;;
76157;SDS011;64907;51.574;6.502;2023-04-07T13:26:30;25.45;;;18.30;;
76157;SDS011;64907;51.574;6.502;2023-04-07T13:28:55;32.47;;;21.20;;
76157;SDS011;64907;51.574;6.502;2023-04-07T13:31:21;27.73;;;19.48;;
76157;SDS011;64907;51.574;6.502;2023-04-07T13:33:47;31.65;;;19.25;;
76157;SDS011;64907;51.574;6.502;2023-04-07T13:36:12;27.92;;;18.50;;
76157;SDS011;64907;51.574;6.502;2023-04-07T13:38:37;38.07;;;20.63;;
76157;SDS011;64907;51.574;6.502;2023-04-07T13:41:03;39.83;;;20.65;;
76157;SDS011;64907;51.574;6.502;2023-04-07T13:43:28;38.20;;;20.10;;
76157;SDS011;64907;51.574;6.502;2023-04-07T13:45:53;38.17;;;21.42;;
76157;SDS011;64907;51.574;6.502;2023-04-07T13:48:20;31.58;;;18.45;;
76157;SDS011;64907;51.574;6.502;2023-04-07T13:50:45;28.92;;;17.58;;
76157;SDS011;64907;51.574;6.502;2023-04-07T13:53:10;25.08;;;16.92;;
76157;SDS011;64907;51.574;6.502;2023-04-07T13:55:36;25.27;;;16.40;;
76157;SDS011;64907;51.574;6.502;2023-04-07T13:58:01;25.27;;;18.02;;
76157;SDS011;64907;51.574;6.502;2023-04-07T14:00:26;26.52;;;17.92;;
76157;SDS011;64907;51.574;6.502;2023-04-07T14:02:51;27.33;;;17.60;;
76157;SDS011;64907;51.574;6.502;2023-04-07T14:05:17;31.40;;;18.27;;
76157;SDS011;64907;51.574;6.502;2023-04-07T14:07:42;25.73;;;18.67;;
76157;SDS011;64907;51.574;6.502;2023-04-07T14:10:08;38.90;;;21.52;;
76157;SDS011;64907;51.574;6.502;2023-04-07T14:12:33;28.80;;;19.13;;
76157;SDS011;64907;51.574;6.502;2023-04-07T14:14:59;30.88;;;19.83;;
76157;SDS011;64907;51.574;6.502;2023-04-07T14:17:24;25.92;;;18.35;;
76157;SDS011;64907;51.574;6.502;2023-04-07T14:19:49;26.83;;;19.67;;
76157;SDS011;64907;51.574;6.502;2023-04-07T14:22:15;27.42;;;17.98;;
76157;SDS011;64907;51.574;6.502;2023-04-07T14:24:40;25.08;;;17.48;;
76157;SDS011;64907;51.574;6.502;2023-04-07T14:27:05;25.67;;;17.00;;
76157;SDS011;64907;51.574;6.502;2023-04-07T14:29:30;29.67;;;17.25;;
76157;SDS011;64907;51.574;6.502;2023-04-07T14:31:56;22.20;;;15.93;;